Time;durP1;ratioP1;P1;durP2;ratioP2;P2;SDS_P1;SDS_P2;PMS_P1;PMS_P2;Temp;Humidity;BMP_temperature;BMP_pressure;BME280_temperature;BME280_humidity;BME280_pressure;Samples;Min_cycle;Max_cycle;Signal;HPM_P1;HPM_P2
2022/12/21 00:00:51;;;;;;;83.78;24.88;;;7.50;99.90;;;;;;4988917;28;20050;-75
2022/12/21 00:03:17;;;;;;;56.05;23.60;;;7.50;99.90;;;;;;4989496;28;20126;-74
2022/12/21 00:05:43;;;;;;;59.30;24.17;;;7.40;99.90;;;;;;4989541;28;20129;-76
2022/12/21 00:08:09;;;;;;;163.50;24.77;;;7.40;99.90;;;;;;4988082;28;20446;-74
2022/12/21 00:10:34;;;;;;;144.40;23.92;;;7.40;99.90;;;;;;4987396;28;20549;-75
2022/12/21 00:13:00;;;;;;;237.88;24.38;;;7.30;99.90;;;;;;4987638;28;20125;-74
2022/12/21 00:15:26;;;;;;;242.93;26.55;;;7.30;99.90;;;;;;4988657;28;20727;-75
2022/12/21 00:17:52;;;;;;;238.27;22.50;;;7.30;99.90;;;;;;4988468;28;20050;-75
2022/12/21 00:20:17;;;;;;;199.45;23.20;;;7.30;99.90;;;;;;4987483;28;20054;-74
2022/12/21 00:22:43;;;;;;;118.10;23.20;;;7.30;99.90;;;;;;4987354;28;20065;-76
2022/12/21 00:25:09;;;;;;;240.35;25.85;;;7.30;99.90;;;;;;4987224;28;20405;-73
2022/12/21 00:27:34;;;;;;;154.82;24.20;;;7.20;99.90;;;;;;4988438;28;20104;-73
2022/12/21 00:30:00;;;;;;;182.45;24.02;;;7.20;99.90;;;;;;4988522;28;20050;-79
2022/12/21 00:32:26;;;;;;;180.45;23.15;;;7.20;99.90;;;;;;4987191;28;20086;-74
2022/12/21 00:34:52;;;;;;;172.85;21.90;;;7.20;99.90;;;;;;4988875;28;20050;-76
2022/12/21 00:37:18;;;;;;;130.63;21.60;;;7.20;99.90;;;;;;4988799;28;20069;-76
2022/12/21 00:39:43;;;;;;;170.43;22.67;;;7.70;99.90;;;;;;4986776;28;20050;-73
2022/12/21 00:42:09;;;;;;;166.88;21.95;;;7.10;99.90;;;;;;4988373;28;20512;-73
2022/12/21 00:44:34;;;;;;;155.50;20.63;;;7.10;99.90;;;;;;4986980;28;20046;-74
2022/12/21 00:47:00;;;;;;;138.45;20.65;;;7.40;99.90;;;;;;4988409;28;20064;-74
2022/12/21 00:49:26;;;;;;;124.30;20.77;;;7.10;99.90;;;;;;4988084;28;20050;-73
2022/12/21 00:51:51;;;;;;;137.93;21.52;;;7.10;99.90;;;;;;4988546;28;20053;-74
2022/12/21 00:54:17;;;;;;;176.35;22.50;;;7.30;99.90;;;;;;4988391;28;20500;-77
2022/12/21 00:56:42;;;;;;;179.55;22.48;;;7.00;99.90;;;;;;4988018;28;20050;-73
2022/12/21 00:59:08;;;;;;;165.77;23.02;;;7.00;99.90;;;;;;4988038;28;20137;-74
2022/12/21 01:01:34;;;;;;;145.85;21.60;;;7.40;99.90;;;;;;4988162;28;20038;-74
2022/12/21 01:04:01;;;;;;;94.55;20.65;;;7.00;99.90;;;;;;4986952;28;20153;-74
2022/12/21 01:06:30;;;;;;;109.80;21.63;;;7.00;99.90;;;;;;4988512;28;20050;-78
2022/12/21 01:08:56;;;;;;;178.35;23.65;;;6.90;99.90;;;;;;4988559;28;20054;-74
2022/12/21 01:11:23;;;;;;;113.22;20.38;;;7.00;99.90;;;;;;4987714;28;20046;-81
2022/12/21 01:13:49;;;;;;;86.88;20.58;;;7.00;99.90;;;;;;4988187;28;20493;-74
2022/12/21 01:16:25;;;;;;;141.23;20.35;;;7.00;99.90;;;;;;4986756;28;20078;-73
2022/12/21 01:18:50;;;;;;;105.38;20.30;;;6.90;99.90;;;;;;4988345;28;20046;-73
2022/12/21 01:21:19;;;;;;;99.90;20.50;;;6.90;99.90;;;;;;4987821;28;20044;-74
2022/12/21 01:23:45;;;;;;;70.70;19.13;;;6.90;99.90;;;;;;4986538;28;20059;-74
2022/12/21 01:26:11;;;;;;;48.83;17.55;;;6.80;99.90;;;;;;4987658;28;20062;-74
2022/12/21 01:28:37;;;;;;;82.97;20.20;;;6.80;99.90;;;;;;4987941;28;20149;-74
2022/12/21 01:31:03;;;;;;;46.90;16.92;;;6.80;99.90;;;;;;4986106;28;20061;-72
2022/12/21 01:33:29;;;;;;;73.05;18.15;;;6.80;99.90;;;;;;4986676;28;20197;-73
2022/12/21 01:35:55;;;;;;;48.83;17.17;;;6.70;99.90;;;;;;4987762;28;20093;-73
2022/12/21 01:38:20;;;;;;;82.03;17.65;;;6.80;99.90;;;;;;4987727;28;20070;-73
2022/12/21 01:40:46;;;;;;;63.25;16.80;;;6.70;99.90;;;;;;4987369;28;20046;-73
2022/12/21 01:43:18;;;;;;;85.57;18.13;;;6.70;99.90;;;;;;4986504;28;20054;-74
2022/12/21 01:45:47;;;;;;;93.13;17.75;;;6.70;99.90;;;;;;4987596;28;20397;-73
2022/12/21 01:48:16;;;;;;;129.52;18.80;;;6.70;99.90;;;;;;4987532;28;20135;-73
2022/12/21 01:51:03;;;;;;;100.03;17.50;;;6.70;99.90;;;;;;4987355;28;20061;-74
2022/12/21 01:53:38;;;;;;;62.05;15.60;;;6.60;99.90;;;;;;4987889;28;20088;-73
2022/12/21 01:56:10;;;;;;;106.03;16.45;;;6.60;99.90;;;;;;4987541;28;20039;-74
2022/12/21 01:58:38;;;;;;;78.40;15.05;;;6.90;99.90;;;;;;4987778;28;20046;-72
2022/12/21 02:01:05;;;;;;;113.22;16.40;;;6.60;99.90;;;;;;4987387;28;20046;-74
2022/12/21 02:03:35;;;;;;;113.93;18.05;;;6.60;99.90;;;;;;4987759;28;20061;-73
2022/12/21 02:06:07;;;;;;;129.18;16.00;;;6.70;99.90;;;;;;4987526;28;20088;-74
2022/12/21 02:08:33;;;;;;;61.88;14.85;;;6.50;99.90;;;;;;4987421;28;20050;-74
2022/12/21 02:11:00;;;;;;;77.60;17.25;;;6.50;99.90;;;;;;4985792;28;20112;-73
2022/12/21 02:13:29;;;;;;;66.35;14.73;;;6.50;99.90;;;;;;4986290;28;20499;-73
2022/12/21 02:16:13;;;;;;;85.38;13.88;;;6.40;99.90;;;;;;4987401;28;20047;-71
2022/12/21 02:18:57;;;;;;;87.95;14.48;;;6.40;99.90;;;;;;4987431;28;20047;-73
2022/12/21 02:22:03;;;;;;;97.50;14.77;;;6.40;99.90;;;;;;4986645;28;20561;-74
2022/12/21 02:24:37;;;;;;;91.70;13.02;;;6.40;99.90;;;;;;4965697;28;20575;-72
2022/12/21 02:27:05;;;;;;;126.32;14.32;;;6.30;99.90;;;;;;4965420;28;20059;-73
2022/12/21 02:29:46;;;;;;;80.15;11.82;;;6.30;99.90;;;;;;4964990;28;20132;-72
2022/12/21 02:32:20;;;;;;;108.53;12.40;;;6.30;99.90;;;;;;4965223;28;20050;-72
2022/12/21 02:34:48;;;;;;;61.20;11.87;;;6.20;99.90;;;;;;4965101;28;20055;-73
2022/12/21 02:37:29;;;;;;;94.25;12.15;;;6.20;99.90;;;;;;4964913;28;20131;-72
2022/12/21 02:40:15;;;;;;;50.92;12.13;;;6.20;99.90;;;;;;4948695;28;20533;-75
2022/12/21 02:46:08;;;;;;;71.75;11.73;;;6.10;99.90;;;;;;4964906;28;20423;-73
2022/12/21 02:48:48;;;;;;;190.85;15.60;;;6.10;99.90;;;;;;4964626;28;20527;-72
2022/12/21 02:51:22;;;;;;;123.55;13.25;;;6.10;99.90;;;;;;4964461;28;20082;-75
2022/12/21 02:53:49;;;;;;;83.70;12.05;;;5.40;99.90;;;;;;4964890;28;20105;-73
2022/12/21 02:56:16;;;;;;;91.20;11.25;;;6.00;99.90;;;;;;4967082;28;20133;-73
2022/12/21 02:58:42;;;;;;;135.43;12.23;;;6.00;99.90;;;;;;4967864;28;20833;-74
2022/12/21 03:01:23;;;;;;;145.88;12.65;;;6.00;99.90;;;;;;4988032;28;20062;-74
2022/12/21 03:04:04;;;;;;;138.90;10.65;;;6.00;99.90;;;;;;4989989;28;20125;-73
2022/12/21 03:07:16;;;;;;;108.95;10.93;;;6.00;99.90;;;;;;4990061;28;20077;-73
2022/12/21 03:10:12;;;;;;;70.05;10.77;;;5.90;99.90;;;;;;4988558;28;20046;-73
2022/12/21 03:12:46;;;;;;;96.60;11.68;;;5.90;99.90;;;;;;4989527;28;20046;-73
2022/12/21 03:15:32;;;;;;;144.02;13.75;;;5.90;99.90;;;;;;4989983;28;20053;-74
2022/12/21 03:18:14;;;;;;;56.22;11.02;;;5.90;99.90;;;;;;4989686;28;20050;-74
2022/12/21 03:21:00;;;;;;;92.45;12.38;;;5.90;99.90;;;;;;4989943;28;20042;-73
2022/12/21 03:23:55;;;;;;;112.35;13.40;;;5.90;99.90;;;;;;4989250;28;20501;-73
2022/12/21 03:26:29;;;;;;;54.77;11.70;;;5.90;99.90;;;;;;4988948;28;20054;-74
2022/12/21 03:28:58;;;;;;;64.85;12.45;;;5.90;99.90;;;;;;4989591;28;20050;-74
2022/12/21 03:31:31;;;;;;;66.38;12.65;;;5.90;99.90;;;;;;4989529;28;20047;-76
2022/12/21 03:34:23;;;;;;;59.90;12.98;;;5.90;99.90;;;;;;4988199;28;20513;-76
2022/12/21 03:36:51;;;;;;;77.05;13.52;;;5.90;99.90;;;;;;4989580;28;20103;-74
2022/12/21 03:39:21;;;;;;;35.88;11.80;;;5.90;99.90;;;;;;4989296;28;20117;-76
2022/12/21 03:41:55;;;;;;;42.95;12.27;;;5.90;99.90;;;;;;4989474;28;20054;-74
2022/12/21 03:44:28;;;;;;;119.05;13.25;;;5.90;99.90;;;;;;4988863;28;20625;-74
2022/12/21 03:47:01;;;;;;;137.18;13.30;;;5.80;99.90;;;;;;4989623;28;20497;-73
2022/12/21 03:49:47;;;;;;;133.48;11.75;;;5.80;99.90;;;;;;4989312;28;20058;-79
2022/12/21 03:52:20;;;;;;;41.75;10.45;;;5.80;99.90;;;;;;4989614;28;20051;-73
2022/12/21 03:54:51;;;;;;;86.63;11.55;;;5.80;99.90;;;;;;4989209;28;20039;-73
2022/12/21 03:57:19;;;;;;;77.15;11.80;;;5.90;99.90;;;;;;4989347;28;20115;-71
2022/12/21 03:59:48;;;;;;;68.68;11.65;;;5.80;99.90;;;;;;4987838;28;20467;-77
2022/12/21 04:02:23;;;;;;;57.88;12.00;;;5.80;99.90;;;;;;4989129;28;20088;-72
2022/12/21 04:04:55;;;;;;;52.15;10.43;;;5.80;99.90;;;;;;4989308;28;20052;-73
2022/12/21 04:07:24;;;;;;;53.55;11.13;;;6.40;99.90;;;;;;4989269;28;20443;-73
2022/12/21 04:10:03;;;;;;;99.00;12.63;;;6.10;99.90;;;;;;4989284;28;20439;-74
2022/12/21 04:12:39;;;;;;;56.03;12.00;;;5.80;99.90;;;;;;4988817;28;20057;-73
2022/12/21 04:15:18;;;;;;;64.38;11.90;;;6.10;99.90;;;;;;4988653;28;20076;-74
2022/12/21 04:17:46;;;;;;;135.02;12.85;;;5.80;99.90;;;;;;4989174;28;20057;-76
2022/12/21 04:20:20;;;;;;;105.82;12.48;;;6.60;99.90;;;;;;4987522;28;20514;-73
2022/12/21 04:28:18;;;;;;;51.35;12.00;;;5.80;99.90;;;;;;4988764;28;20054;-79
2022/12/21 04:30:45;;;;;;;53.08;12.32;;;5.70;99.90;;;;;;4988422;28;20046;-72
2022/12/21 04:33:16;;;;;;;97.10;12.38;;;5.70;99.90;;;;;;4988830;28;20050;-72
2022/12/21 04:38:28;;;;;;;121.50;11.73;;;5.70;99.90;;;;;;5072239;28;20044;-74
2022/12/21 04:40:54;;;;;;;119.47;11.88;;;5.70;99.90;;;;;;5006145;28;20324;-75
2022/12/21 04:43:21;;;;;;;54.53;10.52;;;5.70;99.90;;;;;;4987467;28;20091;-73
2022/12/21 04:45:47;;;;;;;189.55;13.55;;;5.70;99.90;;;;;;4986987;28;20738;-73
2022/12/21 04:48:13;;;;;;;158.18;12.73;;;5.70;99.90;;;;;;4988407;28;20046;-73
2022/12/21 04:50:40;;;;;;;111.40;12.57;;;5.70;99.90;;;;;;4970242;28;20105;-73
2022/12/21 04:53:05;;;;;;;136.48;13.93;;;5.70;99.90;;;;;;4988296;28;20133;-74
2022/12/21 04:55:31;;;;;;;106.10;12.57;;;5.70;99.90;;;;;;4988337;28;20125;-73
2022/12/21 04:57:56;;;;;;;81.45;13.20;;;6.10;99.90;;;;;;4988425;28;20050;-75
2022/12/21 05:00:22;;;;;;;32.13;10.95;;;5.70;99.90;;;;;;4987921;28;20050;-73
2022/12/21 05:02:48;;;;;;;101.40;12.70;;;5.70;99.90;;;;;;4988132;28;20054;-73
2022/12/21 05:05:13;;;;;;;44.70;12.25;;;5.80;99.90;;;;;;4987996;28;20042;-73
2022/12/21 05:07:39;;;;;;;42.92;12.52;;;5.80;99.90;;;;;;4988120;28;20580;-73
2022/12/21 05:10:05;;;;;;;56.50;11.85;;;5.80;99.90;;;;;;4988150;28;20046;-72
2022/12/21 05:12:31;;;;;;;51.42;11.80;;;5.80;99.90;;;;;;4987951;28;20052;-72
2022/12/21 05:14:57;;;;;;;59.53;12.45;;;5.80;99.90;;;;;;4987866;28;20443;-74
2022/12/21 05:17:22;;;;;;;111.32;13.07;;;5.80;99.90;;;;;;4987424;28;20058;-72
2022/12/21 05:19:48;;;;;;;107.18;13.48;;;6.20;99.90;;;;;;4987693;28;20046;-73
2022/12/21 05:22:16;;;;;;;62.13;12.38;;;5.80;99.90;;;;;;4985934;28;20058;-76
2022/12/21 05:24:45;;;;;;;42.42;11.23;;;5.80;99.90;;;;;;4987874;28;20115;-72
2022/12/21 05:27:11;;;;;;;81.00;13.20;;;5.80;99.90;;;;;;4987880;28;20043;-72
2022/12/21 05:29:37;;;;;;;71.15;12.63;;;5.80;99.90;;;;;;4988050;28;20054;-73
2022/12/21 05:32:03;;;;;;;35.45;10.90;;;5.80;99.90;;;;;;4986651;28;20065;-73
2022/12/21 05:34:29;;;;;;;48.22;11.38;;;5.80;99.90;;;;;;4987576;28;20046;-72
2022/12/21 05:36:54;;;;;;;60.03;11.93;;;5.80;99.90;;;;;;4987797;28;20492;-77
2022/12/21 05:39:20;;;;;;;51.38;11.25;;;5.70;99.90;;;;;;4986680;28;20095;-74
2022/12/21 05:41:46;;;;;;;95.22;13.00;;;5.70;99.90;;;;;;4987751;28;20081;-74
2022/12/21 05:44:11;;;;;;;63.70;12.00;;;5.70;99.90;;;;;;4986316;28;20405;-76
2022/12/21 05:46:37;;;;;;;79.22;12.43;;;5.70;99.90;;;;;;4987752;28;20572;-74
2022/12/21 05:49:03;;;;;;;80.60;11.85;;;5.70;99.90;;;;;;4986921;28;20057;-73
2022/12/21 05:51:28;;;;;;;52.83;12.23;;;5.60;99.90;;;;;;4986294;28;20405;-77
2022/12/21 05:53:54;;;;;;;77.90;12.23;;;5.60;99.90;;;;;;4987567;28;20039;-73
2022/12/21 05:56:20;;;;;;;94.53;13.55;;;5.60;99.90;;;;;;4987796;28;20110;-73
2022/12/21 05:58:46;;;;;;;28.65;11.07;;;5.60;99.90;;;;;;4987595;28;20050;-72
2022/12/21 06:01:12;;;;;;;71.82;11.82;;;5.60;99.90;;;;;;4987120;28;20588;-72
2022/12/21 06:03:39;;;;;;;37.90;11.57;;;5.60;99.90;;;;;;4987781;28;20137;-73
2022/12/21 06:06:06;;;;;;;65.35;11.95;;;5.60;99.90;;;;;;4986045;28;20058;-73
2022/12/21 06:08:32;;;;;;;58.80;13.27;;;5.50;99.90;;;;;;4987361;28;20454;-74
2022/12/21 06:11:06;;;;;;;36.40;13.27;;;5.50;99.90;;;;;;4987618;28;20057;-74
2022/12/21 06:13:32;;;;;;;42.15;11.93;;;5.50;99.90;;;;;;4987774;28;20078;-75
2022/12/21 06:16:10;;;;;;;82.47;13.82;;;5.90;99.90;;;;;;4987307;28;20535;-74
2022/12/21 06:18:36;;;;;;;49.08;13.13;;;5.60;99.90;;;;;;4987134;28;20502;-73
2022/12/21 06:21:02;;;;;;;75.70;14.93;;;5.50;99.90;;;;;;4985800;28;20137;-78
2022/12/21 06:23:28;;;;;;;55.88;14.00;;;5.50;99.90;;;;;;4987109;28;20073;-76
2022/12/21 06:25:56;;;;;;;100.90;16.10;;;5.50;99.90;;;;;;4987195;28;20477;-77
2022/12/21 06:28:22;;;;;;;134.38;16.40;;;5.50;99.90;;;;;;4985911;28;20055;-73
2022/12/21 06:30:50;;;;;;;46.45;12.82;;;5.50;99.90;;;;;;4990363;28;20498;-73
2022/12/21 06:33:16;;;;;;;67.50;13.88;;;5.50;99.90;;;;;;4989852;28;20080;-74
2022/12/21 06:35:42;;;;;;;108.68;15.70;;;5.60;99.90;;;;;;4990289;28;20049;-73
2022/12/21 06:38:07;;;;;;;49.22;13.82;;;5.50;99.90;;;;;;4989253;28;20046;-72
2022/12/21 06:40:33;;;;;;;67.80;14.40;;;5.60;99.90;;;;;;4988799;28;20412;-73
2022/12/21 06:42:59;;;;;;;47.17;13.23;;;5.60;99.90;;;;;;4990533;28;20061;-74
2022/12/21 06:45:24;;;;;;;73.50;14.55;;;6.20;99.90;;;;;;4990654;28;20038;-73
2022/12/21 06:47:53;;;;;;;76.75;14.98;;;5.60;99.90;;;;;;4989363;28;20411;-73
2022/12/21 06:50:20;;;;;;;39.95;13.60;;;5.60;99.90;;;;;;4990294;28;20493;-75
2022/12/21 06:52:49;;;;;;;56.63;14.30;;;5.60;99.90;;;;;;4990135;28;20047;-73
2022/12/21 06:55:15;;;;;;;65.22;14.65;;;5.60;99.90;;;;;;4990147;28;20057;-77
2022/12/21 06:57:42;;;;;;;101.07;14.57;;;5.50;99.90;;;;;;4990413;28;20047;-73
2022/12/21 07:00:09;;;;;;;79.55;15.48;;;5.60;99.90;;;;;;4988774;28;20057;-74
2022/12/21 07:02:36;;;;;;;55.65;14.38;;;5.50;99.90;;;;;;4989349;28;20488;-73
2022/12/21 07:05:02;;;;;;;74.13;13.68;;;5.60;99.90;;;;;;4988644;28;20050;-71
2022/12/21 07:07:28;;;;;;;69.80;13.45;;;5.70;99.90;;;;;;4990055;28;20397;-76
2022/12/21 07:09:53;;;;;;;146.63;15.15;;;5.60;99.90;;;;;;4990065;28;20046;-72
2022/12/21 07:12:19;;;;;;;110.97;15.32;;;5.60;99.90;;;;;;4989737;28;20058;-74
2022/12/21 07:14:44;;;;;;;66.82;14.45;;;5.50;99.90;;;;;;4989798;28;20042;-72
2022/12/21 07:17:10;;;;;;;45.10;14.05;;;5.50;99.90;;;;;;4989732;28;20524;-73
2022/12/21 07:19:36;;;;;;;54.58;15.05;;;5.50;99.90;;;;;;4989683;28;20053;-73
2022/12/21 07:22:02;;;;;;;140.65;17.42;;;5.50;99.90;;;;;;4987989;28;20187;-75
2022/12/21 07:24:27;;;;;;;64.07;14.90;;;5.50;99.90;;;;;;4987357;28;20050;-73
2022/12/21 07:26:54;;;;;;;118.43;16.83;;;5.50;99.90;;;;;;4987794;28;20042;-72
2022/12/21 07:29:20;;;;;;;76.60;17.27;;;5.50;99.90;;;;;;4988412;28;20085;-73
2022/12/21 07:31:45;;;;;;;75.78;17.17;;;5.50;99.90;;;;;;4989684;28;20457;-73
2022/12/21 07:34:11;;;;;;;67.43;19.25;;;5.50;99.90;;;;;;4989135;28;20500;-73
2022/12/21 07:36:37;;;;;;;97.35;18.95;;;5.50;99.90;;;;;;4988155;28;20473;-77
2022/12/21 07:39:02;;;;;;;70.07;18.77;;;5.50;99.90;;;;;;4987652;28;20055;-74
2022/12/21 07:41:28;;;;;;;48.92;15.90;;;5.50;99.90;;;;;;4987781;28;20493;-76
2022/12/21 07:43:54;;;;;;;70.65;18.15;;;5.50;99.90;;;;;;4987646;28;20057;-73
2022/12/21 07:46:19;;;;;;;52.40;16.98;;;5.50;99.90;;;;;;4989441;28;20060;-76
2022/12/21 07:48:45;;;;;;;56.30;18.17;;;5.50;99.90;;;;;;4989184;28;20421;-75
2022/12/21 07:51:11;;;;;;;78.30;17.92;;;5.50;99.90;;;;;;4987748;28;20103;-74
2022/12/21 07:53:37;;;;;;;47.75;18.52;;;5.50;99.90;;;;;;4989101;28;20538;-76
2022/12/21 07:56:12;;;;;;;96.47;21.13;;;5.50;99.90;;;;;;4988983;28;20521;-73
2022/12/21 07:58:38;;;;;;;46.92;17.90;;;5.50;99.90;;;;;;4987354;28;20046;-73
2022/12/21 08:01:12;;;;;;;55.75;18.88;;;5.50;99.90;;;;;;4988662;28;20046;-73
2022/12/21 08:03:39;;;;;;;64.63;19.77;;;5.60;99.90;;;;;;4988355;28;20046;-72
2022/12/21 08:06:06;;;;;;;65.18;20.45;;;5.50;99.90;;;;;;4989143;28;20091;-73
2022/12/21 08:08:32;;;;;;;68.22;19.60;;;5.60;99.90;;;;;;4989495;28;20047;-73
2022/12/21 08:10:58;;;;;;;44.55;19.48;;;5.60;99.90;;;;;;4989016;28;20065;-73
2022/12/21 08:13:24;;;;;;;40.00;19.25;;;5.60;99.90;;;;;;4987463;28;20054;-73
2022/12/21 08:15:58;;;;;;;72.15;22.13;;;6.20;99.90;;;;;;4988702;28;20546;-73
2022/12/21 08:18:24;;;;;;;57.72;19.35;;;5.60;99.90;;;;;;4989074;28;20058;-72
2022/12/21 08:20:49;;;;;;;71.40;20.75;;;5.60;99.90;;;;;;4988550;28;20050;-76
2022/12/21 08:23:15;;;;;;;68.68;21.90;;;5.60;99.90;;;;;;4987061;28;20049;-73
2022/12/21 08:25:41;;;;;;;97.25;23.38;;;5.70;99.90;;;;;;4988697;28;20137;-73
2022/12/21 08:28:06;;;;;;;57.15;20.40;;;5.70;99.90;;;;;;4988916;28;20125;-72
2022/12/21 08:30:32;;;;;;;65.25;21.48;;;5.70;99.90;;;;;;4988954;28;20065;-72
2022/12/21 08:32:58;;;;;;;100.40;22.65;;;5.70;99.90;;;;;;4988630;28;20512;-75
2022/12/21 08:35:24;;;;;;;116.40;23.98;;;5.70;99.90;;;;;;4988615;28;20066;-75
2022/12/21 08:37:52;;;;;;;90.80;22.35;;;5.80;99.90;;;;;;4989056;28;20052;-74
2022/12/21 08:40:18;;;;;;;81.45;22.67;;;5.80;99.90;;;;;;4988633;28;20125;-76
2022/12/21 08:42:43;;;;;;;90.45;23.83;;;5.60;99.90;;;;;;4988618;28;20564;-73
2022/12/21 08:45:09;;;;;;;194.82;28.15;;;5.80;99.90;;;;;;4986871;28;20045;-72
2022/12/21 08:47:36;;;;;;;81.00;25.80;;;5.90;99.90;;;;;;4987366;28;20055;-73
2022/12/21 08:50:03;;;;;;;80.35;23.67;;;6.30;99.90;;;;;;4988109;28;20182;-73
2022/12/21 08:52:28;;;;;;;89.57;25.05;;;6.00;99.90;;;;;;4988414;28;20138;-75
2022/12/21 08:54:54;;;;;;;111.30;26.20;;;6.00;99.90;;;;;;4987838;28;20129;-77
2022/12/21 08:57:20;;;;;;;93.63;25.65;;;6.50;99.90;;;;;;4986808;28;20078;-74
2022/12/21 08:59:46;;;;;;;128.25;28.55;;;6.10;99.90;;;;;;4989132;28;20088;-72
2022/12/21 09:02:12;;;;;;;141.88;29.92;;;6.20;99.90;;;;;;4988877;28;20061;-74
2022/12/21 09:04:37;;;;;;;83.57;26.80;;;6.20;99.90;;;;;;4987317;28;20039;-73
2022/12/21 09:07:03;;;;;;;96.85;26.40;;;6.20;99.90;;;;;;4988791;28;20390;-73
2022/12/21 09:09:28;;;;;;;98.45;26.77;;;6.20;99.90;;;;;;4987687;28;20050;-73
2022/12/21 09:11:54;;;;;;;99.10;27.27;;;6.30;99.90;;;;;;4988901;28;20084;-75
2022/12/21 09:14:21;;;;;;;92.40;26.58;;;6.30;99.90;;;;;;4988783;28;20129;-73
2022/12/21 09:16:46;;;;;;;93.90;26.80;;;6.30;99.90;;;;;;4988423;28;20062;-74
2022/12/21 09:19:12;;;;;;;89.72;27.45;;;6.40;99.90;;;;;;4988607;28;20057;-75
2022/12/21 09:21:39;;;;;;;110.13;27.90;;;6.40;99.90;;;;;;4988115;28;20078;-73
2022/12/21 09:24:05;;;;;;;73.55;25.92;;;6.50;99.90;;;;;;4988248;28;20497;-74
2022/12/21 09:26:31;;;;;;;91.28;28.00;;;6.50;99.90;;;;;;4988422;28;20060;-72
2022/12/21 09:28:57;;;;;;;83.70;26.52;;;6.50;99.90;;;;;;4987186;28;20034;-73
2022/12/21 09:31:22;;;;;;;84.45;26.65;;;6.50;99.90;;;;;;4986962;28;20112;-74
2022/12/21 09:33:50;;;;;;;87.70;26.42;;;6.80;99.90;;;;;;4987598;28;20417;-74
2022/12/21 09:36:16;;;;;;;81.88;25.77;;;6.60;99.90;;;;;;4986030;28;20066;-72
2022/12/21 09:38:42;;;;;;;108.95;29.90;;;6.60;99.90;;;;;;4988322;28;20071;-73
2022/12/21 09:41:36;;;;;;;97.45;27.13;;;6.50;99.90;;;;;;4988216;28;20054;-74
2022/12/21 09:44:49;;;;;;;81.13;25.25;;;6.60;99.90;;;;;;4988122;28;20053;-73
2022/12/21 09:47:31;;;;;;;84.68;25.13;;;6.60;99.90;;;;;;4954918;28;20051;-72
2022/12/21 09:50:04;;;;;;;79.15;25.05;;;6.60;99.90;;;;;;5031132;28;20052;-73
2022/12/21 09:52:42;;;;;;;71.60;23.58;;;6.60;99.90;;;;;;5047449;28;20052;-72
2022/12/21 09:55:22;;;;;;;69.07;22.92;;;6.60;99.90;;;;;;5047623;28;20107;-71
2022/12/21 09:57:51;;;;;;;81.82;26.48;;;6.70;99.90;;;;;;5026524;28;20063;-73
2022/12/21 10:00:20;;;;;;;76.90;26.02;;;6.70;99.90;;;;;;4946866;29;20051;-76
2022/12/21 10:03:19;;;;;;;69.82;24.23;;;6.70;99.90;;;;;;4946823;28;20498;-73
2022/12/21 10:06:07;;;;;;;68.28;22.08;;;6.70;99.90;;;;;;4949967;29;20104;-73
2022/12/21 10:09:05;;;;;;;65.28;21.63;;;6.70;99.90;;;;;;4950218;29;20076;-73
2022/12/21 10:12:01;;;;;;;66.55;22.73;;;6.70;99.90;;;;;;4950278;29;20062;-80
2022/12/21 10:14:56;;;;;;;60.72;21.33;;;6.70;99.90;;;;;;4950417;29;20132;-74
2022/12/21 10:17:27;;;;;;;57.72;21.80;;;6.70;99.90;;;;;;4950161;28;20067;-75
2022/12/21 10:19:53;;;;;;;65.85;22.23;;;6.70;99.90;;;;;;4950254;28;20055;-75
2022/12/21 10:22:29;;;;;;;60.38;23.83;;;6.70;99.90;;;;;;4949830;29;20047;-74
2022/12/21 10:24:58;;;;;;;72.95;24.45;;;6.70;99.90;;;;;;4971853;28;20051;-73
2022/12/21 10:27:37;;;;;;;72.80;24.35;;;6.70;99.90;;;;;;4972219;28;20756;-74
2022/12/21 10:30:04;;;;;;;61.97;24.20;;;6.70;99.90;;;;;;4972155;28;20058;-74
2022/12/21 10:32:33;;;;;;;61.95;23.33;;;6.80;99.90;;;;;;4971847;28;20078;-75
2022/12/21 10:35:27;;;;;;;64.53;24.13;;;6.70;99.90;;;;;;4984917;28;20046;-73
2022/12/21 10:37:54;;;;;;;58.75;24.35;;;6.70;99.90;;;;;;4989372;28;20149;-74
2022/12/21 10:40:25;;;;;;;59.80;22.88;;;6.70;99.90;;;;;;4991288;28;20047;-73
2022/12/21 10:42:52;;;;;;;58.38;22.95;;;6.90;99.90;;;;;;4989905;28;20061;-74
2022/12/21 10:45:21;;;;;;;56.53;22.17;;;6.70;99.90;;;;;;4990939;28;20097;-74
2022/12/21 10:47:47;;;;;;;53.03;22.13;;;7.20;99.90;;;;;;4989005;28;20058;-75
2022/12/21 10:50:26;;;;;;;73.13;25.08;;;6.70;99.90;;;;;;4991479;28;20046;-79
2022/12/21 10:52:57;;;;;;;63.20;24.00;;;6.70;99.90;;;;;;4991104;28;20057;-73
2022/12/21 10:55:24;;;;;;;59.20;22.65;;;6.80;99.90;;;;;;4990909;28;20454;-72
2022/12/21 10:57:53;;;;;;;64.90;23.98;;;6.90;99.90;;;;;;4990966;28;20051;-73
2022/12/21 11:00:22;;;;;;;64.25;24.15;;;6.90;99.90;;;;;;4990693;28;20046;-73
2022/12/21 11:02:48;;;;;;;66.78;23.48;;;7.00;99.90;;;;;;5019883;28;20545;-73
2022/12/21 11:05:36;;;;;;;62.97;23.23;;;7.00;99.90;;;;;;4990320;28;20050;-74
2022/12/21 11:08:28;;;;;;;63.95;21.88;;;7.10;99.90;;;;;;4989019;28;20629;-75
2022/12/21 11:10:58;;;;;;;57.58;22.30;;;7.20;99.90;;;;;;4989061;28;20860;-73
2022/12/21 11:13:26;;;;;;;54.75;19.95;;;7.70;99.90;;;;;;4990236;28;20038;-75
2022/12/21 11:15:55;;;;;;;60.30;20.20;;;7.30;99.90;;;;;;4987972;28;20062;-74
2022/12/21 11:18:48;;;;;;;54.53;20.05;;;7.90;99.90;;;;;;4990365;28;20119;-74
2022/12/21 11:21:26;;;;;;;56.03;22.30;;;7.50;99.90;;;;;;4989663;28;20788;-74
2022/12/21 11:24:10;;;;;;;54.42;20.67;;;7.60;99.90;;;;;;4989395;28;20061;-73
2022/12/21 11:26:42;;;;;;;54.70;21.15;;;7.80;99.90;;;;;;4989514;28;20181;-74
2022/12/21 11:29:22;;;;;;;51.88;20.08;;;8.00;99.90;;;;;;4986061;28;20042;-78
2022/12/21 11:31:53;;;;;;;51.28;19.83;;;8.00;99.90;;;;;;5021835;28;20180;-76
2022/12/21 11:34:48;;;;;;;46.10;18.98;;;8.10;99.90;;;;;;4989876;28;20045;-73
2022/12/21 11:37:20;;;;;;;;;;;8.20;99.90;;;;;;4990705;28;20042;-74
2022/12/21 11:39:46;;;;;;;48.15;18.55;;;8.30;99.90;;;;;;4988337;28;20403;-73
2022/12/21 11:42:21;;;;;;;40.75;18.23;;;8.40;99.90;;;;;;4989756;28;20042;-75
2022/12/21 11:44:48;;;;;;;;;;;8.40;99.90;;;;;;4984524;28;20038;-74
2022/12/21 11:47:16;;;;;;;49.60;15.95;;;8.60;99.90;;;;;;4989095;28;20288;-74
2022/12/21 11:50:01;;;;;;;43.38;17.70;;;8.50;99.90;;;;;;4970724;28;20051;-74
2022/12/21 11:53:07;;;;;;;47.92;17.17;;;8.60;99.90;;;;;;4987741;28;20061;-74
2022/12/21 11:56:13;;;;;;;42.60;16.73;;;9.20;99.90;;;;;;4989282;28;20061;-75
2022/12/21 11:58:58;;;;;;;39.65;15.15;;;8.80;99.90;;;;;;4988235;28;20489;-78
2022/12/21 12:01:44;;;;;;;47.75;17.13;;;9.00;99.90;;;;;;4989566;28;20046;-76
2022/12/21 12:04:44;;;;;;;33.53;13.80;;;9.00;99.90;;;;;;4989971;28;20046;-75
2022/12/21 12:07:40;;;;;;;34.85;14.75;;;9.10;99.90;;;;;;4989446;28;20489;-73
2022/12/21 12:10:37;;;;;;;40.72;14.88;;;9.20;99.90;;;;;;4988203;28;20050;-73
2022/12/21 12:13:18;;;;;;;43.05;15.45;;;9.30;99.90;;;;;;4988726;28;20054;-73
2022/12/21 12:15:56;;;;;;;42.88;15.10;;;9.40;99.90;;;;;;4989654;28;20120;-74
2022/12/21 12:18:30;;;;;;;39.97;15.13;;;9.50;99.90;;;;;;4989888;28;20103;-75
2022/12/21 12:21:33;;;;;;;45.22;14.30;;;9.50;99.90;;;;;;4989172;28;20476;-73
2022/12/21 12:24:10;;;;;;;38.88;14.60;;;9.60;99.90;;;;;;4989222;28;20138;-76
2022/12/21 12:26:45;;;;;;;34.38;14.05;;;9.80;99.90;;;;;;4988949;28;20073;-74
2022/12/21 12:29:19;;;;;;;;;;;9.70;99.90;;;;;;4989875;28;20087;-74
2022/12/21 12:32:16;;;;;;;38.38;13.80;;;9.80;99.90;;;;;;4989394;28;20407;-73
2022/12/21 12:34:54;;;;;;;42.53;13.90;;;9.80;99.90;;;;;;4987830;28;20211;-74
2022/12/21 12:37:47;;;;;;;33.22;13.25;;;9.80;99.90;;;;;;4987834;28;20481;-73
2022/12/21 12:40:45;;;;;;;42.60;14.00;;;9.80;99.90;;;;;;4989203;28;20053;-73
2022/12/21 12:43:35;;;;;;;29.73;11.98;;;9.80;99.90;;;;;;4989280;28;20397;-75
2022/12/21 12:46:16;;;;;;;33.13;14.05;;;9.70;99.90;;;;;;4988365;28;20065;-74
2022/12/21 12:49:10;;;;;;;30.85;12.50;;;9.60;99.90;;;;;;4989589;28;20054;-76
2022/12/21 12:51:56;;;;;;;35.08;13.50;;;9.50;99.90;;;;;;4987531;28;20050;-75
2022/12/21 12:55:12;;;;;;;29.20;13.57;;;9.40;99.90;;;;;;4988639;28;20117;-74
2022/12/21 12:58:07;;;;;;;32.25;13.00;;;9.40;99.90;;;;;;5047011;28;20508;-79
2022/12/21 13:00:45;;;;;;;35.35;13.63;;;9.40;99.90;;;;;;5028520;28;20061;-74
2022/12/21 13:03:36;;;;;;;34.47;14.73;;;9.40;99.90;;;;;;5028807;28;20052;-75
2022/12/21 13:06:15;;;;;;;29.60;14.20;;;9.40;99.90;;;;;;5029175;28;20045;-73
2022/12/21 13:08:41;;;;;;;31.92;14.30;;;9.30;99.90;;;;;;5026736;28;20061;-76
2022/12/21 13:11:37;;;;;;;34.78;15.35;;;9.20;99.90;;;;;;5028444;28;20171;-76